sensor_id;sensor_type;location;lat;lon;timestamp;P1;durP1;ratioP1;P2;durP2;ratioP2
13432;SDS011;6789;47.678;9.158;2022-07-29T00:03:10;1.33;;;1.23;;
13432;SDS011;6789;47.678;9.158;2022-07-29T00:08:17;1.00;;;1.00;;
13432;SDS011;6789;47.678;9.158;2022-07-29T00:13:09;1.73;;;1.27;;
13432;SDS011;6789;47.678;9.158;2022-07-29T00:18:01;1.20;;;1.10;;
13432;SDS011;6789;47.678;9.158;2022-07-29T00:22:54;1.95;;;1.13;;
13432;SDS011;6789;47.678;9.158;2022-07-29T00:27:46;2.15;;;1.35;;
13432;SDS011;6789;47.678;9.158;2022-07-29T00:32:38;1.20;;;1.10;;
13432;SDS011;6789;47.678;9.158;2022-07-29T00:37:30;1.40;;;1.30;;
13432;SDS011;6789;47.678;9.158;2022-07-29T00:42:21;1.73;;;1.25;;
13432;SDS011;6789;47.678;9.158;2022-07-29T00:47:13;1.48;;;1.38;;
13432;SDS011;6789;47.678;9.158;2022-07-29T00:52:06;1.58;;;1.27;;
13432;SDS011;6789;47.678;9.158;2022-07-29T00:57:00;1.33;;;1.13;;
13432;SDS011;6789;47.678;9.158;2022-07-29T01:02:07;1.20;;;1.10;;
13432;SDS011;6789;47.678;9.158;2022-07-29T01:07:02;1.65;;;1.33;;
13432;SDS011;6789;47.678;9.158;2022-07-29T01:12:09;1.40;;;1.20;;
13432;SDS011;6789;47.678;9.158;2022-07-29T01:17:12;1.00;;;1.00;;
13432;SDS011;6789;47.678;9.158;2022-07-29T01:22:24;1.33;;;1.23;;
13432;SDS011;6789;47.678;9.158;2022-07-29T01:32:54;1.25;;;1.10;;
13432;SDS011;6789;47.678;9.158;2022-07-29T01:38:27;1.40;;;1.30;;
13432;SDS011;6789;47.678;9.158;2022-07-29T01:43:17;1.40;;;1.30;;
13432;SDS011;6789;47.678;9.158;2022-07-29T01:48:23;1.92;;;1.25;;
13432;SDS011;6789;47.678;9.158;2022-07-29T01:53:30;3.55;;;1.20;;
13432;SDS011;6789;47.678;9.158;2022-07-29T01:58:33;1.55;;;1.10;;
13432;SDS011;6789;47.678;9.158;2022-07-29T02:03:29;2.55;;;1.52;;
13432;SDS011;6789;47.678;9.158;2022-07-29T02:08:27;2.53;;;1.35;;
13432;SDS011;6789;47.678;9.158;2022-07-29T02:13:35;1.20;;;1.10;;
13432;SDS011;6789;47.678;9.158;2022-07-29T02:18:29;1.88;;;1.40;;
13432;SDS011;6789;47.678;9.158;2022-07-29T02:23:22;1.60;;;1.48;;
13432;SDS011;6789;47.678;9.158;2022-07-29T02:28:16;1.33;;;1.23;;
13432;SDS011;6789;47.678;9.158;2022-07-29T02:33:10;1.52;;;1.30;;
13432;SDS011;6789;47.678;9.158;2022-07-29T02:38:07;1.67;;;1.27;;
13432;SDS011;6789;47.678;9.158;2022-07-29T02:43:23;1.65;;;1.23;;
13432;SDS011;6789;47.678;9.158;2022-07-29T02:48:17;1.60;;;1.50;;
13432;SDS011;6789;47.678;9.158;2022-07-29T02:53:22;1.73;;;1.30;;
13432;SDS011;6789;47.678;9.158;2022-07-29T03:03:36;1.80;;;1.60;;
13432;SDS011;6789;47.678;9.158;2022-07-29T03:08:31;1.13;;;1.02;;
13432;SDS011;6789;47.678;9.158;2022-07-29T03:13:23;1.35;;;1.25;;
13432;SDS011;6789;47.678;9.158;2022-07-29T03:18:18;2.13;;;1.33;;
13432;SDS011;6789;47.678;9.158;2022-07-29T03:23:09;1.60;;;1.50;;
13432;SDS011;6789;47.678;9.158;2022-07-29T03:28:01;2.17;;;1.70;;
13432;SDS011;6789;47.678;9.158;2022-07-29T03:32:54;1.75;;;1.25;;
13432;SDS011;6789;47.678;9.158;2022-07-29T03:37:59;1.95;;;1.67;;
13432;SDS011;6789;47.678;9.158;2022-07-29T03:43:19;1.50;;;1.40;;
13432;SDS011;6789;47.678;9.158;2022-07-29T03:48:16;2.35;;;1.45;;
13432;SDS011;6789;47.678;9.158;2022-07-29T03:53:22;2.65;;;1.88;;
13432;SDS011;6789;47.678;9.158;2022-07-29T03:58:14;1.50;;;1.40;;
13432;SDS011;6789;47.678;9.158;2022-07-29T04:03:09;2.17;;;1.70;;
13432;SDS011;6789;47.678;9.158;2022-07-29T04:08:15;2.25;;;1.35;;
13432;SDS011;6789;47.678;9.158;2022-07-29T04:13:08;1.77;;;1.35;;
13432;SDS011;6789;47.678;9.158;2022-07-29T04:18:13;2.00;;;1.60;;
13432;SDS011;6789;47.678;9.158;2022-07-29T04:23:07;2.38;;;1.60;;
13432;SDS011;6789;47.678;9.158;2022-07-29T04:28:07;2.45;;;1.50;;
13432;SDS011;6789;47.678;9.158;2022-07-29T04:33:14;3.03;;;1.85;;
13432;SDS011;6789;47.678;9.158;2022-07-29T04:38:21;2.47;;;1.80;;
13432;SDS011;6789;47.678;9.158;2022-07-29T04:43:27;1.50;;;1.40;;
13432;SDS011;6789;47.678;9.158;2022-07-29T04:48:26;2.47;;;1.85;;
13432;SDS011;6789;47.678;9.158;2022-07-29T04:53:19;3.22;;;2.05;;
13432;SDS011;6789;47.678;9.158;2022-07-29T04:58:11;2.15;;;1.50;;
13432;SDS011;6789;47.678;9.158;2022-07-29T05:03:03;2.67;;;1.40;;
13432;SDS011;6789;47.678;9.158;2022-07-29T05:07:56;2.20;;;2.00;;
13432;SDS011;6789;47.678;9.158;2022-07-29T05:12:56;2.72;;;1.95;;
13432;SDS011;6789;47.678;9.158;2022-07-29T05:17:52;2.15;;;1.88;;
13432;SDS011;6789;47.678;9.158;2022-07-29T05:22:58;2.45;;;1.80;;
13432;SDS011;6789;47.678;9.158;2022-07-29T05:27:51;1.67;;;1.58;;
13432;SDS011;6789;47.678;9.158;2022-07-29T05:32:45;3.17;;;2.00;;
13432;SDS011;6789;47.678;9.158;2022-07-29T05:37:42;2.78;;;1.90;;
13432;SDS011;6789;47.678;9.158;2022-07-29T05:42:34;2.88;;;2.45;;
13432;SDS011;6789;47.678;9.158;2022-07-29T05:47:40;1.73;;;1.63;;
13432;SDS011;6789;47.678;9.158;2022-07-29T05:52:34;2.63;;;2.00;;
13432;SDS011;6789;47.678;9.158;2022-07-29T05:57:31;2.60;;;2.40;;
13432;SDS011;6789;47.678;9.158;2022-07-29T06:02:23;2.55;;;2.33;;
13432;SDS011;6789;47.678;9.158;2022-07-29T06:07:16;2.70;;;2.10;;
13432;SDS011;6789;47.678;9.158;2022-07-29T06:12:11;2.05;;;1.90;;
13432;SDS011;6789;47.678;9.158;2022-07-29T06:17:11;3.17;;;2.20;;
13432;SDS011;6789;47.678;9.158;2022-07-29T06:22:07;3.05;;;2.05;;
13432;SDS011;6789;47.678;9.158;2022-07-29T06:27:13;3.30;;;2.10;;
13432;SDS011;6789;47.678;9.158;2022-07-29T06:32:19;1.67;;;1.58;;
13432;SDS011;6789;47.678;9.158;2022-07-29T06:37:26;7.50;;;2.30;;
13432;SDS011;6789;47.678;9.158;2022-07-29T06:42:32;1.95;;;1.70;;
13432;SDS011;6789;47.678;9.158;2022-07-29T06:47:38;2.65;;;1.30;;
13432;SDS011;6789;47.678;9.158;2022-07-29T06:52:31;2.75;;;2.08;;
13432;SDS011;6789;47.678;9.158;2022-07-29T06:57:37;2.10;;;1.80;;
13432;SDS011;6789;47.678;9.158;2022-07-29T07:02:45;3.28;;;1.77;;
13432;SDS011;6789;47.678;9.158;2022-07-29T07:08:01;1.70;;;1.52;;
13432;SDS011;6789;47.678;9.158;2022-07-29T07:13:02;2.30;;;1.90;;
13432;SDS011;6789;47.678;9.158;2022-07-29T07:18:10;2.25;;;1.85;;
13432;SDS011;6789;47.678;9.158;2022-07-29T07:23:05;4.70;;;2.38;;
13432;SDS011;6789;47.678;9.158;2022-07-29T07:28:11;5.03;;;2.50;;
13432;SDS011;6789;47.678;9.158;2022-07-29T07:33:05;2.20;;;2.00;;
13432;SDS011;6789;47.678;9.158;2022-07-29T07:37:58;3.17;;;2.50;;
13432;SDS011;6789;47.678;9.158;2022-07-29T07:43:05;2.42;;;2.22;;
13432;SDS011;6789;47.678;9.158;2022-07-29T07:48:11;4.68;;;2.50;;
13432;SDS011;6789;47.678;9.158;2022-07-29T07:53:17;1.90;;;1.70;;
13432;SDS011;6789;47.678;9.158;2022-07-29T07:58:23;1.98;;;1.80;;
13432;SDS011;6789;47.678;9.158;2022-07-29T08:03:29;2.17;;;1.60;;
13432;SDS011;6789;47.678;9.158;2022-07-29T08:08:35;2.88;;;2.22;;
13432;SDS011;6789;47.678;9.158;2022-07-29T08:13:30;1.95;;;1.85;;
13432;SDS011;6789;47.678;9.158;2022-07-29T08:18:31;2.28;;;2.05;;
13432;SDS011;6789;47.678;9.158;2022-07-29T08:23:37;1.95;;;1.73;;
13432;SDS011;6789;47.678;9.158;2022-07-29T08:28:44;4.07;;;2.38;;
13432;SDS011;6789;47.678;9.158;2022-07-29T08:33:53;2.20;;;2.00;;
13432;SDS011;6789;47.678;9.158;2022-07-29T08:39:02;2.33;;;2.13;;
13432;SDS011;6789;47.678;9.158;2022-07-29T08:44:10;2.05;;;1.90;;
13432;SDS011;6789;47.678;9.158;2022-07-29T08:49:12;1.83;;;1.73;;
13432;SDS011;6789;47.678;9.158;2022-07-29T08:54:22;1.75;;;1.65;;
13432;SDS011;6789;47.678;9.158;2022-07-29T08:59:29;2.30;;;1.80;;
13432;SDS011;6789;47.678;9.158;2022-07-29T09:04:39;2.92;;;1.75;;
13432;SDS011;6789;47.678;9.158;2022-07-29T09:09:45;2.38;;;1.33;;
13432;SDS011;6789;47.678;9.158;2022-07-29T09:14:53;1.50;;;1.40;;
13432;SDS011;6789;47.678;9.158;2022-07-29T09:20:07;1.50;;;1.40;;
13432;SDS011;6789;47.678;9.158;2022-07-29T09:25:37;1.90;;;1.80;;
13432;SDS011;6789;47.678;9.158;2022-07-29T09:31:19;2.13;;;1.92;;
13432;SDS011;6789;47.678;9.158;2022-07-29T09:36:46;1.60;;;1.50;;
13432;SDS011;6789;47.678;9.158;2022-07-29T09:41:52;4.05;;;2.80;;
13432;SDS011;6789;47.678;9.158;2022-07-29T09:47:03;2.40;;;2.20;;
13432;SDS011;6789;47.678;9.158;2022-07-29T09:52:13;3.10;;;2.03;;
13432;SDS011;6789;47.678;9.158;2022-07-29T09:57:24;2.20;;;2.00;;
13432;SDS011;6789;47.678;9.158;2022-07-29T10:02:34;2.30;;;2.05;;
13432;SDS011;6789;47.678;9.158;2022-07-29T10:07:55;4.60;;;2.25;;
13432;SDS011;6789;47.678;9.158;2022-07-29T10:13:06;2.95;;;2.30;;
13432;SDS011;6789;47.678;9.158;2022-07-29T10:18:16;2.53;;;2.10;;
13432;SDS011;6789;47.678;9.158;2022-07-29T10:23:25;2.65;;;2.38;;
13432;SDS011;6789;47.678;9.158;2022-07-29T10:28:36;2.97;;;1.90;;
13432;SDS011;6789;47.678;9.158;2022-07-29T10:45:36;2.05;;;1.63;;
13432;SDS011;6789;47.678;9.158;2022-07-29T10:56:29;2.58;;;1.80;;
13432;SDS011;6789;47.678;9.158;2022-07-29T11:01:38;2.17;;;1.80;;
13432;SDS011;6789;47.678;9.158;2022-07-29T11:23:19;2.60;;;1.90;;
13432;SDS011;6789;47.678;9.158;2022-07-29T11:45:08;2.10;;;1.70;;
13432;SDS011;6789;47.678;9.158;2022-07-29T11:50:30;3.33;;;1.73;;
13432;SDS011;6789;47.678;9.158;2022-07-29T11:55:40;2.10;;;1.70;;
13432;SDS011;6789;47.678;9.158;2022-07-29T12:00:49;2.30;;;1.95;;
13432;SDS011;6789;47.678;9.158;2022-07-29T12:05:43;3.15;;;2.10;;
13432;SDS011;6789;47.678;9.158;2022-07-29T12:10:50;2.00;;;1.80;;
13432;SDS011;6789;47.678;9.158;2022-07-29T12:15:51;2.35;;;1.70;;
13432;SDS011;6789;47.678;9.158;2022-07-29T12:21:00;2.28;;;1.98;;
13432;SDS011;6789;47.678;9.158;2022-07-29T12:25:58;4.40;;;2.05;;
13432;SDS011;6789;47.678;9.158;2022-07-29T12:31:26;3.20;;;2.17;;
13432;SDS011;6789;47.678;9.158;2022-07-29T12:36:33;4.60;;;2.28;;
13432;SDS011;6789;47.678;9.158;2022-07-29T12:41:42;3.35;;;2.05;;
13432;SDS011;6789;47.678;9.158;2022-07-29T12:47:03;2.45;;;2.13;;
13432;SDS011;6789;47.678;9.158;2022-07-29T12:51:55;2.35;;;1.80;;
13432;SDS011;6789;47.678;9.158;2022-07-29T12:56:57;2.40;;;2.10;;
13432;SDS011;6789;47.678;9.158;2022-07-29T13:02:04;3.00;;;2.75;;
13432;SDS011;6789;47.678;9.158;2022-07-29T13:06:59;2.83;;;2.63;;
13432;SDS011;6789;47.678;9.158;2022-07-29T13:11:55;2.50;;;2.17;;
13432;SDS011;6789;47.678;9.158;2022-07-29T13:22:01;2.47;;;2.28;;
13432;SDS011;6789;47.678;9.158;2022-07-29T13:26:54;3.53;;;3.22;;
13432;SDS011;6789;47.678;9.158;2022-07-29T13:31:46;3.53;;;2.90;;
13432;SDS011;6789;47.678;9.158;2022-07-29T13:36:38;3.67;;;3.20;;
13432;SDS011;6789;47.678;9.158;2022-07-29T13:41:31;3.65;;;3.33;;
13432;SDS011;6789;47.678;9.158;2022-07-29T13:46:37;3.58;;;2.85;;
13432;SDS011;6789;47.678;9.158;2022-07-29T13:51:34;2.75;;;2.50;;
13432;SDS011;6789;47.678;9.158;2022-07-29T13:56:40;3.40;;;2.58;;
13432;SDS011;6789;47.678;9.158;2022-07-29T14:01:33;2.33;;;2.10;;
13432;SDS011;6789;47.678;9.158;2022-07-29T14:06:26;2.90;;;1.90;;
13432;SDS011;6789;47.678;9.158;2022-07-29T14:11:20;2.20;;;2.00;;
13432;SDS011;6789;47.678;9.158;2022-07-29T14:16:12;3.30;;;2.83;;
13432;SDS011;6789;47.678;9.158;2022-07-29T14:21:08;2.85;;;1.90;;
13432;SDS011;6789;47.678;9.158;2022-07-29T14:26:00;2.38;;;2.17;;
13432;SDS011;6789;47.678;9.158;2022-07-29T14:30:52;2.45;;;2.25;;
13432;SDS011;6789;47.678;9.158;2022-07-29T14:35:44;2.85;;;2.55;;
13432;SDS011;6789;47.678;9.158;2022-07-29T14:40:37;4.75;;;2.47;;
13432;SDS011;6789;47.678;9.158;2022-07-29T14:45:29;2.67;;;2.13;;
13432;SDS011;6789;47.678;9.158;2022-07-29T14:50:22;2.70;;;2.45;;
13432;SDS011;6789;47.678;9.158;2022-07-29T14:55:22;2.95;;;2.38;;
13432;SDS011;6789;47.678;9.158;2022-07-29T15:00:28;2.80;;;2.60;;
13432;SDS011;6789;47.678;9.158;2022-07-29T15:05:29;2.90;;;2.65;;
13432;SDS011;6789;47.678;9.158;2022-07-29T15:10:26;2.80;;;2.00;;
13432;SDS011;6789;47.678;9.158;2022-07-29T15:15:23;2.30;;;2.10;;
13432;SDS011;6789;47.678;9.158;2022-07-29T15:20:23;2.97;;;2.67;;
13432;SDS011;6789;47.678;9.158;2022-07-29T15:25:21;2.85;;;2.53;;
13432;SDS011;6789;47.678;9.158;2022-07-29T15:30:31;4.50;;;2.53;;
13432;SDS011;6789;47.678;9.158;2022-07-29T15:35:28;2.72;;;2.53;;
13432;SDS011;6789;47.678;9.158;2022-07-29T15:40:31;3.35;;;2.75;;
13432;SDS011;6789;47.678;9.158;2022-07-29T15:45:40;3.40;;;2.70;;
13432;SDS011;6789;47.678;9.158;2022-07-29T15:51:20;3.28;;;2.50;;
13432;SDS011;6789;47.678;9.158;2022-07-29T15:56:31;4.03;;;2.45;;
13432;SDS011;6789;47.678;9.158;2022-07-29T16:01:41;2.42;;;2.20;;
13432;SDS011;6789;47.678;9.158;2022-07-29T16:06:47;2.20;;;2.00;;
13432;SDS011;6789;47.678;9.158;2022-07-29T16:11:54;2.50;;;2.30;;
13432;SDS011;6789;47.678;9.158;2022-07-29T16:16:48;3.40;;;2.85;;
13432;SDS011;6789;47.678;9.158;2022-07-29T16:21:40;2.80;;;2.22;;
13432;SDS011;6789;47.678;9.158;2022-07-29T16:26:33;2.42;;;2.22;;
13432;SDS011;6789;47.678;9.158;2022-07-29T16:31:31;2.92;;;2.15;;
13432;SDS011;6789;47.678;9.158;2022-07-29T16:36:40;3.55;;;2.38;;
13432;SDS011;6789;47.678;9.158;2022-07-29T16:41:52;3.65;;;2.17;;
13432;SDS011;6789;47.678;9.158;2022-07-29T16:46:58;2.42;;;2.25;;
13432;SDS011;6789;47.678;9.158;2022-07-29T16:52:05;2.85;;;2.53;;
13432;SDS011;6789;47.678;9.158;2022-07-29T16:57:12;2.58;;;2.38;;
13432;SDS011;6789;47.678;9.158;2022-07-29T17:02:18;2.83;;;2.20;;
13432;SDS011;6789;47.678;9.158;2022-07-29T17:07:11;2.83;;;2.58;;
13432;SDS011;6789;47.678;9.158;2022-07-29T17:12:12;2.67;;;2.47;;
13432;SDS011;6789;47.678;9.158;2022-07-29T17:17:18;3.38;;;2.53;;
13432;SDS011;6789;47.678;9.158;2022-07-29T17:22:24;2.80;;;2.53;;
13432;SDS011;6789;47.678;9.158;2022-07-29T17:27:23;3.25;;;2.70;;
13432;SDS011;6789;47.678;9.158;2022-07-29T17:32:29;3.30;;;2.70;;
13432;SDS011;6789;47.678;9.158;2022-07-29T17:37:40;3.63;;;2.40;;
13432;SDS011;6789;47.678;9.158;2022-07-29T17:42:46;2.58;;;2.38;;
13432;SDS011;6789;47.678;9.158;2022-07-29T17:47:51;4.20;;;2.95;;
13432;SDS011;6789;47.678;9.158;2022-07-29T17:52:58;3.35;;;3.03;;
13432;SDS011;6789;47.678;9.158;2022-07-29T17:58:06;3.10;;;2.80;;
13432;SDS011;6789;47.678;9.158;2022-07-29T18:03:13;4.13;;;2.63;;
13432;SDS011;6789;47.678;9.158;2022-07-29T18:08:22;2.70;;;2.50;;
13432;SDS011;6789;47.678;9.158;2022-07-29T18:13:24;2.65;;;2.45;;
13432;SDS011;6789;47.678;9.158;2022-07-29T18:18:16;2.60;;;2.38;;
13432;SDS011;6789;47.678;9.158;2022-07-29T18:23:10;3.45;;;2.42;;
13432;SDS011;6789;47.678;9.158;2022-07-29T18:28:23;4.78;;;2.85;;
13432;SDS011;6789;47.678;9.158;2022-07-29T18:33:29;2.92;;;2.35;;
13432;SDS011;6789;47.678;9.158;2022-07-29T18:38:26;3.03;;;2.72;;
13432;SDS011;6789;47.678;9.158;2022-07-29T18:43:19;2.67;;;2.47;;
13432;SDS011;6789;47.678;9.158;2022-07-29T18:48:25;3.40;;;2.50;;
13432;SDS011;6789;47.678;9.158;2022-07-29T18:53:31;3.88;;;2.40;;
13432;SDS011;6789;47.678;9.158;2022-07-29T18:58:39;2.58;;;2.30;;
13432;SDS011;6789;47.678;9.158;2022-07-29T19:03:45;2.33;;;2.10;;
13432;SDS011;6789;47.678;9.158;2022-07-29T19:08:39;3.08;;;2.40;;
13432;SDS011;6789;47.678;9.158;2022-07-29T19:13:50;3.00;;;2.55;;
13432;SDS011;6789;47.678;9.158;2022-07-29T19:18:56;2.42;;;2.22;;
13432;SDS011;6789;47.678;9.158;2022-07-29T19:24:02;3.28;;;2.30;;
13432;SDS011;6789;47.678;9.158;2022-07-29T19:29:05;2.85;;;2.42;;
13432;SDS011;6789;47.678;9.158;2022-07-29T19:34:00;2.28;;;2.08;;
13432;SDS011;6789;47.678;9.158;2022-07-29T19:38:52;2.30;;;2.10;;
13432;SDS011;6789;47.678;9.158;2022-07-29T19:43:44;3.00;;;2.20;;
13432;SDS011;6789;47.678;9.158;2022-07-29T19:48:43;2.38;;;1.92;;
13432;SDS011;6789;47.678;9.158;2022-07-29T19:53:35;2.85;;;2.30;;
13432;SDS011;6789;47.678;9.158;2022-07-29T19:58:27;2.35;;;1.80;;
13432;SDS011;6789;47.678;9.158;2022-07-29T20:03:19;2.42;;;2.17;;
13432;SDS011;6789;47.678;9.158;2022-07-29T20:08:11;3.15;;;2.50;;
13432;SDS011;6789;47.678;9.158;2022-07-29T20:13:03;2.70;;;2.17;;
13432;SDS011;6789;47.678;9.158;2022-07-29T20:17:55;1.77;;;1.67;;
13432;SDS011;6789;47.678;9.158;2022-07-29T20:22:47;2.33;;;2.10;;
13432;SDS011;6789;47.678;9.158;2022-07-29T20:27:39;2.60;;;1.85;;
13432;SDS011;6789;47.678;9.158;2022-07-29T20:32:31;2.92;;;2.28;;
13432;SDS011;6789;47.678;9.158;2022-07-29T20:37:24;2.72;;;2.38;;
13432;SDS011;6789;47.678;9.158;2022-07-29T20:42:16;2.97;;;2.10;;
13432;SDS011;6789;47.678;9.158;2022-07-29T20:47:09;3.28;;;2.90;;
13432;SDS011;6789;47.678;9.158;2022-07-29T20:52:02;3.35;;;2.95;;
13432;SDS011;6789;47.678;9.158;2022-07-29T20:56:54;3.20;;;2.90;;
13432;SDS011;6789;47.678;9.158;2022-07-29T21:01:46;3.60;;;2.70;;
13432;SDS011;6789;47.678;9.158;2022-07-29T21:06:37;4.68;;;3.15;;
13432;SDS011;6789;47.678;9.158;2022-07-29T21:11:38;3.35;;;3.03;;
13432;SDS011;6789;47.678;9.158;2022-07-29T21:16:35;3.63;;;3.30;;
13432;SDS011;6789;47.678;9.158;2022-07-29T21:21:28;3.10;;;2.80;;
13432;SDS011;6789;47.678;9.158;2022-07-29T21:26:23;3.22;;;2.92;;
13432;SDS011;6789;47.678;9.158;2022-07-29T21:31:18;3.33;;;3.03;;
13432;SDS011;6789;47.678;9.158;2022-07-29T21:36:10;3.10;;;2.83;;
13432;SDS011;6789;47.678;9.158;2022-07-29T21:41:22;3.50;;;3.05;;
13432;SDS011;6789;47.678;9.158;2022-07-29T21:46:19;3.58;;;2.55;;
13432;SDS011;6789;47.678;9.158;2022-07-29T21:51:14;4.22;;;2.83;;
13432;SDS011;6789;47.678;9.158;2022-07-29T21:56:10;2.97;;;2.67;;
13432;SDS011;6789;47.678;9.158;2022-07-29T22:01:08;3.40;;;2.80;;
13432;SDS011;6789;47.678;9.158;2022-07-29T22:06:00;3.45;;;3.10;;
13432;SDS011;6789;47.678;9.158;2022-07-29T22:10:52;4.75;;;3.40;;
13432;SDS011;6789;47.678;9.158;2022-07-29T22:15:43;4.00;;;3.60;;
13432;SDS011;6789;47.678;9.158;2022-07-29T22:20:37;4.50;;;3.60;;
13432;SDS011;6789;47.678;9.158;2022-07-29T22:25:31;3.88;;;3.53;;
13432;SDS011;6789;47.678;9.158;2022-07-29T22:30:24;5.00;;;3.42;;
13432;SDS011;6789;47.678;9.158;2022-07-29T22:35:16;3.17;;;2.83;;
13432;SDS011;6789;47.678;9.158;2022-07-29T22:40:09;4.35;;;2.95;;
13432;SDS011;6789;47.678;9.158;2022-07-29T22:45:01;3.75;;;3.17;;
13432;SDS011;6789;47.678;9.158;2022-07-29T22:49:57;3.97;;;2.95;;
13432;SDS011;6789;47.678;9.158;2022-07-29T22:55:03;8.40;;;3.35;;
13432;SDS011;6789;47.678;9.158;2022-07-29T22:59:57;3.63;;;2.92;;
13432;SDS011;6789;47.678;9.158;2022-07-29T23:04:51;3.85;;;3.45;;
13432;SDS011;6789;47.678;9.158;2022-07-29T23:09:43;3.88;;;3.30;;
13432;SDS011;6789;47.678;9.158;2022-07-29T23:14:35;4.50;;;2.90;;
13432;SDS011;6789;47.678;9.158;2022-07-29T23:19:28;3.63;;;3.30;;
13432;SDS011;6789;47.678;9.158;2022-07-29T23:24:20;4.28;;;3.28;;
13432;SDS011;6789;47.678;9.158;2022-07-29T23:29:12;3.20;;;2.90;;
13432;SDS011;6789;47.678;9.158;2022-07-29T23:34:04;4.90;;;2.92;;
13432;SDS011;6789;47.678;9.158;2022-07-29T23:38:56;3.53;;;3.22;;
13432;SDS011;6789;47.678;9.158;2022-07-29T23:43:48;4.07;;;3.33;;
13432;SDS011;6789;47.678;9.158;2022-07-29T23:48:40;3.90;;;2.90;;
13432;SDS011;6789;47.678;9.158;2022-07-29T23:53:36;3.42;;;3.00;;
13432;SDS011;6789;47.678;9.158;2022-07-29T23:58:43;3.95;;;2.42;;
